Time;durP1;ratioP1;P1;durP2;ratioP2;P2;SDS_P1;SDS_P2;PMS_P1;PMS_P2;Temp;Humidity;BMP_temperature;BMP_pressure;BME280_temperature;BME280_humidity;BME280_pressure;Samples;Min_cycle;Max_cycle;Signal;HPM_P1;HPM_P2
2023/05/22 00:00:00;;;;;;;20.15;12.55;;;;;;;12.57;100.00;101603.25;10288903;28;20070;-79
2023/05/22 00:05:02;;;;;;;34.38;14.75;;;;;;;12.57;100.00;101606.81;10304506;28;20058;-80
2023/05/22 00:10:07;;;;;;;34.75;14.48;;;;;;;12.53;100.00;101596.53;10288180;28;20069;-80
2023/05/22 00:15:13;;;;;;;18.67;10.18;;;;;;;12.50;100.00;101595.03;10304228;28;20038;-78
2023/05/22 00:20:14;;;;;;;28.05;13.50;;;;;;;12.45;100.00;101589.34;10273696;28;20030;-80
2023/05/22 00:25:17;;;;;;;20.20;12.60;;;;;;;12.44;100.00;101587.66;10288767;28;20041;-80
2023/05/22 00:30:19;;;;;;;21.08;10.00;;;;;;;12.44;100.00;101578.66;10295757;28;20417;-80
2023/05/22 00:35:20;;;;;;;28.25;12.32;;;;;;;12.43;100.00;101579.72;10290460;28;20133;-80
2023/05/22 00:40:21;;;;;;;28.23;13.00;;;;;;;12.40;100.00;101580.94;10288246;28;20049;-80
2023/05/22 00:45:24;;;;;;;22.67;14.68;;;;;;;12.39;100.00;101581.13;10289727;28;20033;-81
2023/05/22 00:50:26;;;;;;;21.08;14.02;;;;;;;12.38;100.00;101598.44;10273093;28;20034;-80
2023/05/22 00:55:27;;;;;;;22.48;13.80;;;;;;;12.37;100.00;101588.63;10272487;28;20095;-80
2023/05/22 01:00:27;;;;;;;23.17;12.82;;;;;;;12.39;100.00;101600.16;10296644;28;20046;-79
2023/05/22 01:05:28;;;;;;;18.80;13.10;;;;;;;12.40;100.00;101586.34;10294635;28;20062;-80
2023/05/22 01:10:31;;;;;;;30.20;14.77;;;;;;;12.55;100.00;101586.31;10294640;28;20508;-81
2023/05/22 01:15:39;;;;;;;28.23;16.55;;;;;;;12.72;100.00;101585.00;10294513;28;20041;-80
2023/05/22 01:20:47;;;;;;;32.63;17.75;;;;;;;12.80;100.00;101563.13;10287296;28;20054;-80
2023/05/22 01:26:14;;;;;;;26.77;15.93;;;;;;;12.75;100.00;101565.59;10284634;28;20043;-80
2023/05/22 01:31:17;;;;;;;30.42;17.27;;;;;;;12.64;100.00;101544.41;10299759;28;20544;-80
2023/05/22 01:36:21;;;;;;;25.00;15.98;;;;;;;12.57;100.00;101548.91;10303341;28;20093;-81
2023/05/22 01:41:24;;;;;;;21.88;15.15;;;;;;;12.56;100.00;101549.94;10286976;28;20474;-80
2023/05/22 01:46:28;;;;;;;21.10;14.27;;;;;;;12.49;100.00;101527.31;10299911;28;20050;-80
2023/05/22 01:51:47;;;;;;;16.98;14.80;;;;;;;12.44;100.00;101533.31;10304743;28;20058;-80
2023/05/22 01:57:06;;;;;;;36.30;15.82;;;;;;;12.42;100.00;101524.53;10299435;28;20038;-80
2023/05/22 02:02:07;;;;;;;36.22;16.25;;;;;;;12.37;100.00;101499.81;10299698;28;20039;-81
2023/05/22 02:07:10;;;;;;;36.60;15.57;;;;;;;12.37;100.00;101515.28;10287466;28;20054;-81
2023/05/22 02:12:11;;;;;;;22.20;14.07;;;;;;;12.36;100.00;101506.31;10303608;28;20059;-80
2023/05/22 02:17:12;;;;;;;35.75;14.95;;;;;;;12.31;100.00;101506.88;10284821;28;20119;-79
2023/05/22 02:22:13;;;;;;;25.27;16.92;;;;;;;12.37;100.00;101493.56;10296850;28;20137;-81
2023/05/22 02:27:14;;;;;;;32.38;14.80;;;;;;;12.38;100.00;101490.66;10278899;28;20043;-80
2023/05/22 02:32:15;;;;;;;31.60;15.90;;;;;;;12.36;100.00;101484.56;10294821;28;20466;-80
2023/05/22 02:37:16;;;;;;;30.30;15.55;;;;;;;12.36;100.00;101476.44;10291970;28;20113;-81
2023/05/22 02:42:16;;;;;;;32.92;17.70;;;;;;;12.33;100.00;101472.22;10299437;28;20070;-80
2023/05/22 02:47:18;;;;;;;29.05;17.52;;;;;;;12.36;100.00;101478.31;10281319;28;20043;-81
2023/05/22 02:52:18;;;;;;;43.10;18.65;;;;;;;12.36;100.00;101471.00;10278193;28;20492;-80
2023/05/22 02:57:19;;;;;;;27.75;18.58;;;;;;;12.36;100.00;101481.88;10293209;28;20038;-72
2023/05/22 03:02:19;;;;;;;32.30;19.27;;;;;;;12.34;100.00;101490.19;10292881;28;20173;-73
2023/05/22 03:07:20;;;;;;;38.10;20.13;;;;;;;12.32;100.00;101492.28;10295025;28;20082;-73
2023/05/22 03:12:20;;;;;;;32.33;17.40;;;;;;;12.31;100.00;101492.47;10309385;28;20038;-74
2023/05/22 03:17:21;;;;;;;33.97;18.70;;;;;;;12.30;100.00;101483.47;10293767;28;20039;-74
2023/05/22 03:22:22;;;;;;;25.50;17.02;;;;;;;12.29;100.00;101486.41;10276260;28;20038;-73
2023/05/22 03:27:22;;;;;;;33.25;15.35;;;;;;;12.28;100.00;101473.84;10293445;28;20099;-73
2023/05/22 03:32:22;;;;;;;32.03;17.45;;;;;;;12.26;100.00;101470.50;10294700;28;20062;-73
2023/05/22 03:37:23;;;;;;;28.30;16.45;;;;;;;12.26;100.00;101474.03;10293960;28;20038;-73
2023/05/22 03:42:23;;;;;;;34.72;17.38;;;;;;;12.24;100.00;101473.38;10300436;28;20130;-74
2023/05/22 03:47:24;;;;;;;25.13;15.65;;;;;;;12.21;100.00;101479.19;10298109;28;20494;-73
2023/05/22 03:52:24;;;;;;;27.73;16.30;;;;;;;12.19;100.00;101469.56;10292206;28;20078;-74
2023/05/22 03:57:24;;;;;;;35.20;15.82;;;;;;;12.21;100.00;101484.63;10275282;28;20066;-74
2023/05/22 04:02:25;;;;;;;29.35;15.65;;;;;;;12.22;100.00;101491.78;10292399;28;20430;-72
2023/05/22 04:07:25;;;;;;;42.97;18.00;;;;;;;12.27;100.00;101467.56;10275214;28;20129;-73
2023/05/22 04:12:26;;;;;;;19.33;15.85;;;;;;;12.30;100.00;101474.50;10290981;28;20059;-73
2023/05/22 04:17:30;;;;;;;28.05;14.73;;;;;;;12.37;100.00;101482.69;10291561;28;20484;-73
2023/05/22 04:22:32;;;;;;;22.58;13.82;;;;;;;12.45;100.00;101490.72;10275465;28;20046;-74
2023/05/22 04:27:33;;;;;;;34.97;16.02;;;;;;;12.49;100.00;101481.13;10291600;28;20035;-74
2023/05/22 04:32:35;;;;;;;25.88;15.65;;;;;;;12.62;100.00;101492.13;10260974;28;20385;-73
2023/05/22 04:37:35;;;;;;;31.85;15.40;;;;;;;12.68;100.00;101496.75;10299747;28;20038;-73
2023/05/22 04:42:39;;;;;;;40.63;16.13;;;;;;;12.79;100.00;101495.38;10301223;28;20054;-73
2023/05/22 04:47:40;;;;;;;28.88;15.82;;;;;;;12.96;100.00;101498.66;10299468;28;20035;-73
2023/05/22 04:52:40;;;;;;;31.60;17.15;;;;;;;13.23;100.00;101495.03;10299520;28;20043;-75
2023/05/22 04:57:43;;;;;;;30.27;16.10;;;;;;;13.48;100.00;101502.75;10282882;28;20034;-73
2023/05/22 05:02:43;;;;;;;35.25;18.45;;;;;;;13.55;100.00;101497.31;10300047;28;20067;-73
2023/05/22 05:07:45;;;;;;;35.13;18.40;;;;;;;13.68;100.00;101498.22;10281729;28;20470;-74
2023/05/22 05:12:45;;;;;;;40.85;20.58;;;;;;;13.85;100.00;101492.44;10298646;28;20077;-73
2023/05/22 05:17:45;;;;;;;38.30;22.23;;;;;;;13.90;100.00;101503.53;10267309;28;20047;-71
2023/05/22 05:22:46;;;;;;;36.47;22.77;;;;;;;14.00;100.00;101509.41;10299841;28;20047;-75
2023/05/22 05:27:47;;;;;;;46.10;22.70;;;;;;;14.07;100.00;101507.56;10281014;28;20039;-74
2023/05/22 05:32:47;;;;;;;40.53;22.85;;;;;;;14.30;100.00;101517.25;10296927;28;20035;-74
2023/05/22 05:37:47;;;;;;;36.45;21.95;;;;;;;14.55;100.00;101493.84;10297694;28;20104;-73
2023/05/22 05:42:48;;;;;;;52.10;22.65;;;;;;;14.74;100.00;101515.84;10295235;28;20034;-74
2023/05/22 05:47:48;;;;;;;43.63;19.52;;;;;;;14.97;100.00;101512.69;10297070;28;20121;-74
2023/05/22 05:52:49;;;;;;;35.15;19.85;;;;;;;14.96;100.00;101524.63;10282116;28;20125;-73
2023/05/22 05:57:50;;;;;;;34.42;18.35;;;;;;;14.85;100.00;101526.13;10298268;28;20057;-73
2023/05/22 06:02:51;;;;;;;28.63;16.75;;;;;;;14.72;100.00;101537.03;10300794;28;20062;-73
2023/05/22 06:07:51;;;;;;;38.28;17.38;;;;;;;14.93;100.00;101542.25;10297595;28;20078;-74
2023/05/22 06:12:51;;;;;;;24.42;18.25;;;;;;;15.60;100.00;101548.44;10296377;28;20046;-73
2023/05/22 06:17:52;;;;;;;42.15;17.85;;;;;;;16.57;100.00;101543.75;10278535;28;20081;-74
2023/05/22 06:22:52;;;;;;;25.35;17.50;;;;;;;16.35;100.00;101556.94;10297177;28;20034;-73
2023/05/22 06:27:53;;;;;;;28.77;16.50;;;;;;;16.07;100.00;101567.41;10296126;28;20134;-73
2023/05/22 06:32:54;;;;;;;37.22;17.35;;;;;;;16.04;100.00;101564.03;10279195;28;20039;-72
2023/05/22 06:37:54;;;;;;;38.00;16.08;;;;;;;15.99;100.00;101585.72;10295580;28;20038;-73
2023/05/22 06:42:56;;;;;;;32.97;15.88;;;;;;;16.17;100.00;101586.88;10310731;28;20038;-73
2023/05/22 06:47:56;;;;;;;22.88;15.63;;;;;;;16.47;100.00;101582.53;10278422;28;20066;-73
2023/05/22 06:52:57;;;;;;;31.65;18.20;;;;;;;16.86;100.00;101580.59;10298213;28;20054;-73
2023/05/22 06:57:57;;;;;;;22.80;14.68;;;;;;;17.66;100.00;101575.19;10278448;28;20039;-73
2023/05/22 07:02:58;;;;;;;32.22;14.73;;;;;;;18.05;100.00;101567.56;10309215;28;20478;-74
2023/05/22 07:07:58;;;;;;;31.00;14.15;;;;;;;18.90;100.00;101568.47;10293815;28;20069;-74
2023/05/22 07:12:59;;;;;;;26.73;14.90;;;;;;;20.27;100.00;101565.19;10295141;28;20077;-73
2023/05/22 07:17:59;;;;;;;33.25;14.48;;;;;;;21.62;100.00;101570.72;10293957;28;20042;-74
2023/05/22 07:22:59;;;;;;;26.60;12.75;;;;;;;22.43;100.00;101576.41;10293964;28;20046;-73
2023/05/22 07:28:02;;;;;;;19.88;12.82;;;;;;;22.87;100.00;101567.13;10277676;28;20393;-74
2023/05/22 07:33:04;;;;;;;26.77;13.68;;;;;;;23.24;100.00;101567.16;10293434;28;20156;-74
2023/05/22 07:38:04;;;;;;;22.10;12.80;;;;;;;23.48;100.00;101588.88;10309364;28;20512;-73
2023/05/22 07:43:04;;;;;;;21.60;13.43;;;;;;;23.17;100.00;101585.91;10275856;28;20124;-74
2023/05/22 07:48:05;;;;;;;14.32;11.68;;;;;;;23.98;97.97;101602.16;10293664;28;20161;-74
2023/05/22 07:53:05;;;;;;;28.50;13.23;;;;;;;24.51;96.51;101593.78;10276567;28;20034;-74
2023/05/22 07:58:07;;;;;;;23.10;9.93;;;;;;;25.06;93.85;101594.91;10275430;28;20146;-74
2023/05/22 08:03:07;;;;;;;22.52;12.00;;;;;;;25.42;90.21;101597.66;10276273;28;20094;-74
2023/05/22 08:08:09;;;;;;;15.80;11.57;;;;;;;25.63;88.53;101584.56;10296490;28;20089;-74
2023/05/22 08:13:11;;;;;;;14.85;9.93;;;;;;;26.13;89.38;101599.38;10284861;28;20528;-73
2023/05/22 08:18:12;;;;;;;18.92;11.70;;;;;;;26.44;85.78;101586.16;10283537;28;20039;-75
2023/05/22 08:23:12;;;;;;;16.00;10.65;;;;;;;26.51;83.94;101575.56;10283761;28;20508;-74
2023/05/22 08:28:13;;;;;;;21.98;11.27;;;;;;;26.93;82.93;101560.25;10304921;28;20054;-74
2023/05/22 08:33:13;;;;;;;16.48;10.73;;;;;;;27.32;80.77;101560.16;10302944;28;20605;-74
2023/05/22 08:38:14;;;;;;;22.98;10.35;;;;;;;27.85;80.04;101559.28;10301349;28;20038;-74
2023/05/22 08:43:14;;;;;;;21.38;11.02;;;;;;;28.23;76.24;101550.97;10300198;28;20140;-75
2023/05/22 08:48:15;;;;;;;23.27;10.77;;;;;;;28.73;75.91;101554.94;10284344;28;20114;-77
2023/05/22 08:53:16;;;;;;;14.23;9.52;;;;;;;28.92;75.00;101554.91;10282548;28;20442;-76
2023/05/22 08:58:17;;;;;;;12.60;9.15;;;;;;;29.00;72.98;101550.56;10282467;28;20573;-74
2023/05/22 09:03:20;;;;;;;13.77;10.88;;;;;;;29.18;72.06;101552.50;10282157;28;20204;-75
2023/05/22 09:08:20;;;;;;;15.27;9.90;;;;;;;29.25;71.57;101546.53;10314517;28;20045;-73
2023/05/22 09:13:28;;;;;;;22.02;10.38;;;;;;;29.65;68.30;101558.06;10281732;28;20142;-73
2023/05/22 09:18:29;;;;;;;14.88;8.18;;;;;;;29.90;65.75;101556.69;10313576;28;20035;-75
2023/05/22 09:23:29;;;;;;;16.63;10.90;;;;;;;29.74;65.95;101553.41;10281226;28;20038;-75
2023/05/22 09:28:36;;;;;;;13.20;8.60;;;;;;;29.77;64.66;101563.94;10298436;28;20473;-73
2023/05/22 09:33:36;;;;;;;18.02;8.70;;;;;;;29.29;63.81;101560.69;10281489;28;20042;-74
2023/05/22 09:38:37;;;;;;;12.18;9.02;;;;;;;29.72;62.99;101564.03;10297863;28;20492;-74
2023/05/22 09:43:37;;;;;;;11.75;8.32;;;;;;;29.85;61.65;101551.22;10282185;28;20043;-74
2023/05/22 09:48:38;;;;;;;14.25;7.85;;;;;;;30.09;61.10;101557.38;10280370;28;20062;-75
2023/05/22 09:53:38;;;;;;;22.35;8.35;;;;;;;29.94;55.42;101560.50;10297333;28;20038;-74
2023/05/22 09:58:38;;;;;;;11.15;8.48;;;;;;;29.38;58.35;101561.63;10280503;28;20030;-74
2023/05/22 10:03:39;;;;;;;12.98;9.40;;;;;;;29.15;58.50;101557.88;10267833;28;20485;-73
2023/05/22 10:08:44;;;;;;;16.65;9.93;;;;;;;29.33;57.54;101559.78;10297985;28;20361;-73
2023/05/22 10:13:46;;;;;;;16.23;9.40;;;;;;;29.28;58.40;101565.44;10279446;28;20039;-73
2023/05/22 10:18:47;;;;;;;13.52;8.50;;;;;;;29.42;57.51;101555.13;10279447;28;20465;-73
2023/05/22 10:23:48;;;;;;;21.45;9.48;;;;;;;29.56;56.71;101565.47;10279340;28;20426;-74
2023/05/22 10:28:54;;;;;;;17.80;9.25;;;;;;;29.64;56.68;101560.03;10279391;28;20048;-74
2023/05/22 10:34:04;;;;;;;13.98;8.57;;;;;;;29.54;56.33;101564.94;10262295;28;20469;-74
2023/05/22 10:39:27;;;;;;;14.80;9.10;;;;;;;29.58;56.43;101560.38;10278646;28;20039;-72
2023/05/22 10:44:27;;;;;;;24.38;9.60;;;;;;;29.95;55.86;101564.13;10297240;28;20037;-73
2023/05/22 10:49:28;;;;;;;15.13;8.52;;;;;;;29.79;54.75;101549.66;10281285;28;20030;-73
2023/05/22 10:54:44;;;;;;;14.65;8.18;;;;;;;29.77;54.77;101552.78;10280250;28;20354;-74
2023/05/22 10:59:48;;;;;;;18.33;9.45;;;;;;;30.07;53.86;101547.66;10283848;28;20125;-75
2023/05/22 11:04:48;;;;;;;9.35;7.75;;;;;;;29.95;53.83;101544.56;10266542;28;20051;-74
2023/05/22 11:09:52;;;;;;;24.17;10.73;;;;;;;30.08;54.12;101540.91;10295249;28;20034;-74
2023/05/22 11:14:54;;;;;;;17.35;7.88;;;;;;;30.20;53.05;101543.22;10278741;28;20085;-74
2023/05/22 11:20:03;;;;;;;12.65;7.38;;;;;;;30.30;52.73;101531.78;10277325;28;20035;-73
2023/05/22 11:25:15;;;;;;;13.30;8.40;;;;;;;30.25;52.31;101531.91;10295016;28;20031;-74
2023/05/22 11:30:16;;;;;;;15.55;9.10;;;;;;;30.46;53.61;101540.63;10264339;28;20121;-73
2023/05/22 11:35:20;;;;;;;17.70;10.35;;;;;;;30.50;52.36;101536.88;10262920;28;20168;-73
2023/05/22 11:40:24;;;;;;;23.67;11.25;;;;;;;30.59;53.16;101548.13;10313749;28;20111;-72
2023/05/22 11:45:24;;;;;;;14.55;9.07;;;;;;;30.55;52.89;101541.53;10260624;28;20084;-73
2023/05/22 11:50:25;;;;;;;14.90;10.40;;;;;;;30.56;52.27;101530.00;10276057;28;20070;-72
2023/05/22 11:55:25;;;;;;;14.82;10.38;;;;;;;30.37;51.82;101546.13;10308280;28;20038;-74
2023/05/22 12:00:26;;;;;;;13.73;12.10;;;;;;;30.37;52.28;101537.75;10292765;28;20073;-73
2023/05/22 12:05:26;;;;;;;18.23;10.73;;;;;;;30.52;52.88;101545.78;10275740;28;20062;-73
2023/05/22 12:10:27;;;;;;;14.68;11.32;;;;;;;30.52;52.78;101564.53;10308524;28;20035;-73
2023/05/22 12:15:28;;;;;;;18.98;11.93;;;;;;;30.03;53.42;101566.19;10276359;28;20129;-73
2023/05/22 12:20:29;;;;;;;18.10;11.88;;;;;;;29.81;53.23;101573.34;10275727;28;20470;-73
2023/05/22 12:25:35;;;;;;;14.30;12.27;;;;;;;29.85;53.75;101577.16;10293566;28;20048;-73
2023/05/22 12:30:40;;;;;;;18.95;11.07;;;;;;;29.73;52.57;101562.06;10275644;28;20485;-73
2023/05/22 12:35:40;;;;;;;14.27;11.48;;;;;;;29.41;53.70;101572.16;10276161;28;20054;-72
2023/05/22 12:40:41;;;;;;;13.93;10.43;;;;;;;29.27;54.59;101576.91;10291621;28;20050;-72
2023/05/22 12:45:41;;;;;;;17.85;10.15;;;;;;;28.96;54.36;101572.69;10292395;28;20063;-72
2023/05/22 12:50:43;;;;;;;12.07;10.35;;;;;;;28.81;54.17;101572.94;10307609;28;20042;-73
2023/05/22 12:55:43;;;;;;;12.43;7.68;;;;;;;28.77;54.51;101574.69;10297327;28;20038;-72
2023/05/22 13:00:43;;;;;;;9.73;7.03;;;;;;;28.51;53.04;101574.25;10282298;28;20035;-72
2023/05/22 13:05:44;;;;;;;9.10;7.03;;;;;;;28.15;53.14;101582.31;10282220;28;20058;-73
2023/05/22 13:10:44;;;;;;;11.13;6.63;;;;;;;28.29;53.62;101572.88;10281202;28;20053;-74
2023/05/22 13:15:45;;;;;;;14.35;6.55;;;;;;;28.36;52.02;101580.84;10301973;28;20046;-73
2023/05/22 13:20:45;;;;;;;9.75;7.72;;;;;;;28.00;53.47;101586.09;10281255;28;20031;-72
2023/05/22 13:25:46;;;;;;;18.40;7.28;;;;;;;28.15;53.86;101591.47;10298256;28;20039;-71
2023/05/22 13:30:46;;;;;;;7.70;6.75;;;;;;;28.05;54.28;101584.09;10300834;28;20470;-73
2023/05/22 13:35:47;;;;;;;10.55;7.07;;;;;;;27.96;54.48;101585.06;10302255;28;20046;-72
2023/05/22 13:40:47;;;;;;;13.52;6.68;;;;;;;27.45;53.47;101588.41;10281349;28;20062;-72
2023/05/22 13:45:48;;;;;;;7.38;6.00;;;;;;;27.01;55.15;101592.13;10281937;28;20342;-73
2023/05/22 13:50:48;;;;;;;6.18;5.57;;;;;;;26.71;54.99;101584.88;10265762;28;20509;-72
2023/05/22 13:55:49;;;;;;;7.22;6.18;;;;;;;26.59;54.82;101593.59;10280905;28;20038;-72
2023/05/22 14:00:49;;;;;;;11.05;5.90;;;;;;;26.21;55.52;101596.00;10297634;28;20070;-72
2023/05/22 14:05:50;;;;;;;11.13;6.50;;;;;;;25.89;54.58;101580.63;10297280;28;20065;-73
2023/05/22 14:10:50;;;;;;;7.65;4.95;;;;;;;25.95;56.28;101589.75;10279108;28;20109;-73
2023/05/22 14:15:51;;;;;;;7.03;4.90;;;;;;;25.49;55.18;101592.63;10279569;28;20490;-72
2023/05/22 14:20:51;;;;;;;6.97;4.95;;;;;;;25.62;56.78;101597.63;10296479;28;20031;-72
2023/05/22 14:25:52;;;;;;;11.75;5.35;;;;;;;25.33;57.35;101599.34;10279943;28;20181;-73
2023/05/22 14:30:52;;;;;;;10.63;6.50;;;;;;;25.35;55.54;101597.13;10279183;28;20043;-72
2023/05/22 14:35:52;;;;;;;5.32;4.75;;;;;;;25.09;57.53;101601.84;10295195;28;20089;-72
2023/05/22 14:40:53;;;;;;;10.75;5.97;;;;;;;24.94;58.61;101595.19;10295331;28;20166;-72
2023/05/22 14:45:54;;;;;;;12.43;5.82;;;;;;;25.31;58.51;101591.31;10246740;28;20398;-72
2023/05/22 14:50:54;;;;;;;5.85;5.32;;;;;;;25.36;58.70;101596.00;10278766;28;20382;-72
2023/05/22 14:55:55;;;;;;;8.35;5.15;;;;;;;24.99;58.89;101599.91;10262773;28;20129;-72
2023/05/22 15:00:55;;;;;;;5.07;4.65;;;;;;;24.73;59.35;101601.81;10294978;28;20405;-74
2023/05/22 15:05:56;;;;;;;6.53;5.28;;;;;;;24.16;58.79;101609.16;10295974;28;20055;-71
2023/05/22 15:10:56;;;;;;;8.93;5.85;;;;;;;23.96;60.21;101609.06;10293480;28;20073;-73
2023/05/22 15:15:57;;;;;;;6.35;5.47;;;;;;;23.66;61.38;101616.06;10293894;28;20026;-73
2023/05/22 15:20:57;;;;;;;10.68;6.00;;;;;;;23.22;62.36;101613.56;10277075;28;20129;-72
2023/05/22 15:25:58;;;;;;;5.93;5.25;;;;;;;22.72;64.18;101618.38;10293710;28;20097;-74
2023/05/22 15:30:58;;;;;;;17.25;5.93;;;;;;;22.54;64.99;101631.72;10275950;28;20058;-73
2023/05/22 15:35:59;;;;;;;6.35;5.18;;;;;;;22.73;64.80;101625.56;10293044;28;20469;-72
2023/05/22 15:40:59;;;;;;;6.70;5.00;;;;;;;22.73;64.23;101624.72;10293342;28;20121;-73
2023/05/22 15:45:59;;;;;;;4.90;4.38;;;;;;;22.86;63.84;101623.47;10294248;28;20109;-74
2023/05/22 15:51:00;;;;;;;6.07;4.63;;;;;;;22.87;64.06;101631.47;10277664;28;20043;-73
2023/05/22 15:56:00;;;;;;;8.05;4.57;;;;;;;22.76;63.78;101638.00;10276657;28;20039;-71
2023/05/22 16:01:01;;;;;;;5.10;4.70;;;;;;;22.58;64.12;101627.34;10260103;28;20037;-74
2023/05/22 16:06:01;;;;;;;4.93;4.55;;;;;;;22.38;64.82;101622.44;10295324;28;20110;-72
2023/05/22 16:11:02;;;;;;;7.95;5.07;;;;;;;22.20;65.08;101642.91;10265101;28;20105;-72
2023/05/22 16:16:04;;;;;;;4.63;4.22;;;;;;;21.88;65.41;101645.50;10296124;28;20343;-72
2023/05/22 16:21:05;;;;;;;6.10;5.45;;;;;;;20.94;66.99;101652.56;10294161;28;20035;-71
2023/05/22 16:26:05;;;;;;;7.43;5.10;;;;;;;20.24;69.45;101663.84;10298651;28;20022;-74
2023/05/22 16:31:05;;;;;;;6.20;5.65;;;;;;;19.83;71.62;101673.97;10284294;28;20038;-72
2023/05/22 16:36:06;;;;;;;9.02;7.35;;;;;;;19.52;72.42;101675.94;10287214;28;20505;-74
2023/05/22 16:41:06;;;;;;;12.38;6.13;;;;;;;19.26;77.44;101682.72;10300746;28;20031;-72
2023/05/22 16:46:07;;;;;;;6.82;6.03;;;;;;;19.00;79.65;101686.75;10287553;28;20466;-73
2023/05/22 16:51:07;;;;;;;10.25;6.85;;;;;;;18.73;78.91;101689.88;10304095;28;20035;-72
2023/05/22 16:56:08;;;;;;;7.85;6.18;;;;;;;18.50;79.85;101685.06;10302262;28;20066;-75
2023/05/22 17:01:08;;;;;;;9.50;7.18;;;;;;;18.22;82.23;101693.03;10269645;28;20034;-72
2023/05/22 17:06:09;;;;;;;15.02;7.13;;;;;;;17.99;84.18;101689.06;10269228;28;20050;-74
2023/05/22 17:11:09;;;;;;;12.63;7.82;;;;;;;17.77;81.63;101683.22;10301255;28;20035;-73
2023/05/22 17:16:10;;;;;;;15.30;8.95;;;;;;;17.53;81.05;101695.81;10283707;28;20124;-73
2023/05/22 17:21:10;;;;;;;14.02;8.25;;;;;;;17.37;83.96;101683.53;10266792;28;20063;-72
2023/05/22 17:26:10;;;;;;;16.15;9.15;;;;;;;17.47;81.12;101701.38;10266352;28;20045;-73
2023/05/22 17:31:11;;;;;;;14.95;6.45;;;;;;;17.38;84.76;101693.41;10282317;28;20545;-73
2023/05/22 17:36:11;;;;;;;19.83;8.93;;;;;;;17.21;81.87;101686.84;10283097;28;20050;-73
2023/05/22 17:41:12;;;;;;;17.58;8.18;;;;;;;17.03;83.34;101697.69;10298837;28;20493;-74
2023/05/22 17:46:12;;;;;;;16.10;8.90;;;;;;;16.88;83.32;101704.31;10282924;28;20554;-74
2023/05/22 17:51:13;;;;;;;13.23;9.68;;;;;;;16.71;nan;101711.31;10282929;28;20126;-73
2023/05/22 17:56:13;;;;;;;19.27;9.43;;;;;;;16.51;88.59;101722.34;10281945;28;20042;-71
2023/05/22 18:01:15;;;;;;;19.58;10.75;;;;;;;16.37;87.39;101732.50;10299445;28;20063;-72
2023/05/22 18:06:16;;;;;;;23.13;10.38;;;;;;;16.13;87.39;101735.94;10298727;28;20137;-72
2023/05/22 18:11:16;;;;;;;29.88;10.77;;;;;;;15.92;88.27;101729.69;10295904;28;20478;-73
2023/05/22 18:16:18;;;;;;;35.75;12.40;;;;;;;15.74;88.62;101722.13;10297410;28;20062;-73
2023/05/22 18:21:18;;;;;;;23.52;10.75;;;;;;;15.63;92.35;101724.63;10296822;28;20094;-73
2023/05/22 18:26:19;;;;;;;26.17;12.05;;;;;;;15.52;93.10;101729.69;10310994;28;20041;-73
2023/05/22 18:31:19;;;;;;;14.43;9.13;;;;;;;15.51;91.21;101738.09;10298783;28;20407;-73
2023/05/22 18:36:20;;;;;;;26.58;10.55;;;;;;;15.46;90.56;101741.44;10307276;28;20049;-72
2023/05/22 18:41:20;;;;;;;23.20;10.73;;;;;;;15.39;88.36;101746.06;10306462;28;20050;-73
2023/05/22 18:46:21;;;;;;;34.60;12.30;;;;;;;15.35;88.92;101748.38;10302780;28;20528;-75
2023/05/22 18:51:21;;;;;;;24.63;11.15;;;;;;;15.28;89.66;101754.84;10298087;28;20031;-76
2023/05/22 18:56:22;;;;;;;22.95;10.45;;;;;;;15.19;88.72;101756.09;10295654;28;20030;-74
2023/05/22 19:01:22;;;;;;;22.27;13.43;;;;;;;15.09;89.75;101746.44;10294226;28;20117;-75
2023/05/22 19:06:24;;;;;;;33.25;17.55;;;;;;;15.01;89.65;101743.06;10308935;28;20058;-73
2023/05/22 19:11:26;;;;;;;23.67;12.63;;;;;;;14.93;88.73;101744.06;10308345;28;20060;-77
2023/05/22 19:16:26;;;;;;;33.78;14.18;;;;;;;14.88;90.35;101760.22;10294474;28;20023;-75
2023/05/22 19:21:26;;;;;;;23.38;13.00;;;;;;;14.79;90.58;101761.44;10293928;28;20031;-78
2023/05/22 19:26:27;;;;;;;23.75;13.15;;;;;;;14.72;91.09;101776.94;10293881;28;20070;-75
2023/05/22 19:31:27;;;;;;;22.85;13.77;;;;;;;14.78;96.31;101806.13;10309605;28;20173;-78
2023/05/22 19:36:28;;;;;;;28.50;12.40;;;;;;;14.79;99.69;101807.81;10297814;28;20085;-76
2023/05/22 19:41:28;;;;;;;23.58;13.35;;;;;;;14.75;100.00;101820.16;10293998;28;20031;-74
2023/05/22 19:46:29;;;;;;;27.00;12.30;;;;;;;14.69;100.00;101832.72;10278448;28;20054;-76
2023/05/22 19:51:29;;;;;;;22.83;12.30;;;;;;;14.55;100.00;101839.13;10293670;28;20035;-78
2023/05/22 19:56:30;;;;;;;26.88;12.20;;;;;;;14.39;100.00;101859.34;10278298;28;20073;-73
2023/05/22 20:01:30;;;;;;;20.90;11.73;;;;;;;14.24;100.00;101877.69;10294884;28;20034;-76
2023/05/22 20:06:32;;;;;;;25.60;13.10;;;;;;;14.13;100.00;101877.16;10294134;28;20105;-75
2023/05/22 20:11:32;;;;;;;22.58;11.75;;;;;;;14.08;100.00;101878.81;10294001;28;20033;-75
2023/05/22 20:16:33;;;;;;;24.77;11.27;;;;;;;14.11;100.00;101883.88;10277533;28;20121;-75
2023/05/22 20:21:33;;;;;;;21.95;10.35;;;;;;;14.08;100.00;101890.53;10295217;28;20070;-72
2023/05/22 20:26:33;;;;;;;15.18;11.50;;;;;;;14.09;100.00;101894.09;10275346;28;20133;-73
2023/05/22 20:31:34;;;;;;;24.50;12.63;;;;;;;14.01;100.00;101910.56;10308681;28;20038;-76
2023/05/22 20:36:35;;;;;;;24.65;11.73;;;;;;;13.95;100.00;101915.78;10294075;28;20058;-75
2023/05/22 20:41:35;;;;;;;17.73;10.93;;;;;;;13.93;100.00;101915.13;10276923;28;20114;-73
2023/05/22 20:46:36;;;;;;;17.08;10.02;;;;;;;13.91;100.00;101932.69;10275128;28;20125;-73
2023/05/22 20:51:36;;;;;;;19.98;11.25;;;;;;;13.83;100.00;101946.44;10261150;28;20026;-73
2023/05/22 20:56:37;;;;;;;25.50;13.00;;;;;;;13.88;100.00;101950.28;10293702;28;20054;-72
2023/05/22 21:01:38;;;;;;;29.85;14.20;;;;;;;13.88;100.00;101954.84;10307454;28;20039;-73
2023/05/22 21:06:39;;;;;;;29.83;13.40;;;;;;;13.98;100.00;101965.47;10310853;28;20050;-74
2023/05/22 21:11:39;;;;;;;22.45;11.35;;;;;;;13.99;100.00;101961.69;10298332;28;20446;-74
2023/05/22 21:16:39;;;;;;;17.58;11.15;;;;;;;14.04;100.00;101965.53;10300269;28;20039;-74
2023/05/22 21:21:40;;;;;;;21.08;13.02;;;;;;;14.08;100.00;101964.09;10299366;28;20477;-73
2023/05/22 21:26:41;;;;;;;21.17;10.45;;;;;;;14.16;100.00;101966.66;10298547;28;20038;-74
2023/05/22 21:31:41;;;;;;;25.98;12.63;;;;;;;14.23;100.00;101958.56;10298773;28;20070;-73
2023/05/22 21:36:41;;;;;;;19.10;10.32;;;;;;;14.32;100.00;101967.44;10280759;28;20046;-73
2023/05/22 21:41:42;;;;;;;20.33;9.82;;;;;;;14.36;100.00;101964.13;10298169;28;20035;-72
2023/05/22 21:46:42;;;;;;;19.27;9.60;;;;;;;14.39;100.00;101968.34;10297929;28;20540;-72
2023/05/22 21:51:43;;;;;;;17.52;9.07;;;;;;;14.36;100.00;101969.59;10297223;28;20069;-73
2023/05/22 21:56:43;;;;;;;13.85;9.05;;;;;;;14.31;100.00;101976.66;10264287;28;20043;-74
2023/05/22 22:01:43;;;;;;;18.98;9.40;;;;;;;14.25;100.00;101961.94;10297374;28;20098;-74
2023/05/22 22:06:44;;;;;;;20.98;12.88;;;;;;;14.26;100.00;101960.03;10296699;28;20143;-74
2023/05/22 22:11:44;;;;;;;13.13;9.00;;;;;;;14.24;100.00;101992.09;10297022;28;20078;-74
2023/05/22 22:16:45;;;;;;;12.70;8.77;;;;;;;14.12;100.00;101979.00;10296393;28;20065;-74
2023/05/22 22:21:45;;;;;;;13.63;9.18;;;;;;;14.09;100.00;101998.44;10296863;28;20034;-74
2023/05/22 22:26:49;;;;;;;17.67;9.55;;;;;;;14.00;100.00;101990.59;10262307;28;20039;-73
2023/05/22 22:31:50;;;;;;;16.20;9.43;;;;;;;13.92;100.00;101991.56;10296360;28;20035;-73